createdAt,value
2018-12-26T00:02:39.247Z,15.60
2018-12-26T00:05:28.294Z,10.30
2018-12-26T00:08:18.784Z,14.20
2018-12-26T00:11:07.707Z,12.93
2018-12-26T00:13:56.601Z,11.60
2018-12-26T00:16:45.513Z,14.87
2018-12-26T00:19:25.335Z,12.97
2018-12-26T00:22:14.279Z,15.07
2018-12-26T00:25:03.214Z,18.57
2018-12-26T00:27:52.172Z,15.70
2018-12-26T00:30:41.063Z,12.88
2018-12-26T00:33:30.224Z,14.90
2018-12-26T00:36:19.213Z,15.23
2018-12-26T00:39:08.127Z,14.20
2018-12-26T00:42:16.068Z,16.55
2018-12-26T00:45:24.709Z,23.05
2018-12-26T00:48:13.616Z,20.60
2018-12-26T00:51:02.564Z,12.37
2018-12-26T00:53:51.791Z,13.37
2018-12-26T00:56:40.675Z,14.10
2018-12-26T00:59:29.585Z,13.63
2018-12-26T01:02:18.516Z,10.17
2018-12-26T01:05:07.412Z,12.10
2018-12-26T01:07:56.337Z,12.07
2018-12-26T01:10:45.224Z,12.90
2018-12-26T01:13:34.142Z,13.33
2018-12-26T01:16:23.046Z,15.00
2018-12-26T01:19:04.763Z,17.50
2018-12-26T01:21:53.696Z,14.40
2018-12-26T01:24:42.589Z,17.07
2018-12-26T01:27:31.505Z,18.50
2018-12-26T01:30:20.416Z,13.87
2018-12-26T01:33:09.342Z,14.70
2018-12-26T01:35:58.320Z,16.20
2018-12-26T01:38:47.241Z,13.77
2018-12-26T01:41:36.155Z,15.57
2018-12-26T01:44:25.093Z,21.33
2018-12-26T01:47:13.993Z,19.50
2018-12-26T01:50:02.928Z,19.20
2018-12-26T01:53:10.859Z,9.97
2018-12-26T01:58:54.318Z,14.37
2018-12-26T02:01:43.222Z,13.67
2018-12-26T02:04:32.149Z,17.93
2018-12-26T02:07:40.087Z,15.27
2018-12-26T02:10:28.990Z,13.63
2018-12-26T02:13:17.926Z,12.65
2018-12-26T02:16:06.830Z,17.50
2018-12-26T02:18:55.741Z,15.90
2018-12-26T02:21:37.978Z,19.40
2018-12-26T02:24:26.896Z,23.40
2018-12-26T02:27:15.799Z,20.67
2018-12-26T02:30:25.649Z,18.47
2018-12-26T02:33:14.554Z,17.40
2018-12-26T02:36:03.497Z,16.63
2018-12-26T02:38:52.394Z,15.73
2018-12-26T02:41:41.311Z,13.17
2018-12-26T02:44:49.259Z,22.60
2018-12-26T02:47:38.218Z,18.60
2018-12-26T02:50:27.128Z,20.37
2018-12-26T02:53:16.052Z,17.40
2018-12-26T02:56:04.978Z,17.07
2018-12-26T02:58:53.907Z,21.10
2018-12-26T03:01:43.163Z,13.57
2018-12-26T03:04:32.098Z,24.15
2018-12-26T03:07:21.024Z,22.77
2018-12-26T03:10:09.943Z,20.12
2018-12-26T03:12:58.902Z,26.90
2018-12-26T03:15:47.889Z,24.63
2018-12-26T03:18:36.821Z,21.70
2018-12-26T03:21:18.328Z,24.17
2018-12-26T03:24:07.234Z,16.33
2018-12-26T03:26:56.741Z,22.25
2018-12-26T03:29:46.811Z,15.90
2018-12-26T03:32:35.748Z,19.93
2018-12-26T03:35:24.655Z,23.07
2018-12-26T03:38:13.595Z,21.35
2018-12-26T03:41:02.500Z,22.10
2018-12-26T03:43:51.499Z,25.92
2018-12-26T03:46:40.486Z,18.70
2018-12-26T03:49:29.442Z,22.13
2018-12-26T03:52:18.353Z,25.70
2018-12-26T03:55:07.397Z,26.65
2018-12-26T03:57:56.321Z,25.25
2018-12-26T04:00:45.235Z,27.23
2018-12-26T04:03:34.165Z,37.10
2018-12-26T04:06:23.146Z,34.60
2018-12-26T04:09:12.075Z,37.48
2018-12-26T04:12:01.081Z,25.50
2018-12-26T04:14:50.055Z,26.07
2018-12-26T04:17:39.016Z,22.87
2018-12-26T04:20:27.925Z,25.60
2018-12-26T04:23:09.552Z,22.25
2018-12-26T04:29:26.895Z,22.42
2018-12-26T04:32:15.808Z,24.07
2018-12-26T04:38:19.686Z,25.32
2018-12-26T04:41:08.609Z,27.00
2018-12-26T04:43:57.537Z,25.93
2018-12-26T04:46:46.462Z,26.80
2018-12-26T04:49:35.384Z,28.45
2018-12-26T04:52:43.324Z,29.10
2018-12-26T04:55:32.244Z,24.40
2018-12-26T04:58:21.186Z,23.18
2018-12-26T05:01:10.088Z,25.90
2018-12-26T05:03:59.026Z,30.15
2018-12-26T05:06:47.955Z,33.60
2018-12-26T05:09:36.863Z,32.85
2018-12-26T05:12:25.810Z,34.70
2018-12-26T05:15:14.743Z,28.40
2018-12-26T05:18:03.677Z,25.40
2018-12-26T05:20:52.596Z,29.63
2018-12-26T05:23:34.305Z,34.78
2018-12-26T05:26:23.235Z,25.70
2018-12-26T05:29:31.168Z,29.35
2018-12-26T05:32:20.098Z,37.20
2018-12-26T05:35:09.016Z,26.05
2018-12-26T05:37:57.941Z,26.87
2018-12-26T05:40:46.858Z,26.80
2018-12-26T05:43:35.801Z,25.50
2018-12-26T05:46:24.698Z,28.47
2018-12-26T05:49:13.637Z,32.23
2018-12-26T05:52:02.544Z,26.90
2018-12-26T05:54:51.479Z,28.15
2018-12-26T05:57:42.882Z,24.30
2018-12-26T06:00:31.055Z,24.90
2018-12-26T06:03:19.971Z,22.77
2018-12-26T06:06:08.897Z,31.93
2018-12-26T06:08:57.817Z,29.30
2018-12-26T06:11:46.747Z,30.30
2018-12-26T06:14:35.652Z,26.20
2018-12-26T06:17:24.576Z,33.17
2018-12-26T06:20:13.483Z,24.50
2018-12-26T06:22:55.195Z,35.70
2018-12-26T06:25:44.121Z,31.40
2018-12-26T06:28:33.031Z,29.97
2018-12-26T06:31:21.959Z,32.85
2018-12-26T06:34:10.865Z,28.80
2018-12-26T06:36:59.793Z,25.23
2018-12-26T06:39:48.699Z,30.63
2018-12-26T06:42:37.630Z,28.97
2018-12-26T06:45:26.546Z,27.70
2018-12-26T06:48:15.463Z,31.43
2018-12-26T06:51:04.392Z,25.40
2018-12-26T06:53:53.402Z,30.85
2018-12-26T06:56:42.334Z,28.03
2018-12-26T06:59:31.264Z,27.63
2018-12-26T07:02:20.180Z,28.25
2018-12-26T07:05:09.126Z,23.70
2018-12-26T07:07:58.031Z,30.17
2018-12-26T07:10:46.962Z,29.27
2018-12-26T07:13:35.876Z,31.33
2018-12-26T07:16:24.781Z,34.00
2018-12-26T07:19:13.725Z,33.23
2018-12-26T07:22:02.637Z,30.10
2018-12-26T07:27:45.542Z,28.37
2018-12-26T07:30:34.463Z,39.10
2018-12-26T07:33:23.376Z,30.97
2018-12-26T07:36:12.291Z,34.80
2018-12-26T07:39:01.225Z,32.70
2018-12-26T07:41:50.125Z,26.97
2018-12-26T07:44:39.047Z,34.47
2018-12-26T07:47:27.976Z,30.70
2018-12-26T07:50:16.927Z,27.87
2018-12-26T07:53:05.888Z,28.47
2018-12-26T07:55:54.818Z,31.20
2018-12-26T07:58:43.719Z,27.80
2018-12-26T08:01:51.654Z,30.37
2018-12-26T08:04:40.565Z,21.37
2018-12-26T08:07:29.458Z,26.37
2018-12-26T08:10:18.390Z,25.07
2018-12-26T08:13:07.286Z,28.77
2018-12-26T08:16:15.227Z,32.13
2018-12-26T08:19:04.142Z,44.37
2018-12-26T08:21:53.102Z,27.80
2018-12-26T08:24:35.141Z,27.63
2018-12-26T08:27:24.051Z,25.93
2018-12-26T08:30:12.952Z,27.17
2018-12-26T08:33:01.889Z,29.10
2018-12-26T08:35:50.789Z,29.65
2018-12-26T08:38:39.726Z,29.53
2018-12-26T08:41:28.627Z,25.03
2018-12-26T08:44:17.565Z,27.00
2018-12-26T08:47:06.488Z,26.53
2018-12-26T08:49:55.397Z,25.27
2018-12-26T08:52:44.319Z,28.40
2018-12-26T08:55:33.222Z,28.73
2018-12-26T09:01:16.116Z,32.93
2018-12-26T09:04:05.024Z,27.63
2018-12-26T09:06:53.943Z,25.75
2018-12-26T09:09:42.852Z,23.40
2018-12-26T09:15:39.522Z,28.33
2018-12-26T09:18:28.422Z,25.20
2018-12-26T09:21:17.447Z,25.63
2018-12-26T09:23:59.583Z,26.20
2018-12-26T09:26:48.501Z,32.10
2018-12-26T09:29:37.411Z,27.43
2018-12-26T09:32:26.318Z,28.10
2018-12-26T09:35:15.255Z,26.93
2018-12-26T09:38:04.161Z,31.37
2018-12-26T09:40:53.083Z,27.75
2018-12-26T09:43:41.982Z,26.20
2018-12-26T09:46:30.896Z,28.10
2018-12-26T09:49:19.794Z,21.83
2018-12-26T09:52:08.734Z,25.90
2018-12-26T09:54:57.623Z,27.07
2018-12-26T09:57:46.535Z,30.13
2018-12-26T10:00:35.433Z,22.03
2018-12-26T10:03:24.351Z,24.50
2018-12-26T10:06:13.257Z,23.95
2018-12-26T10:09:02.172Z,22.07
2018-12-26T10:11:51.064Z,24.80
2018-12-26T10:14:39.983Z,27.77
2018-12-26T10:17:28.881Z,24.13
2018-12-26T10:20:17.805Z,25.63
2018-12-26T10:23:06.700Z,22.17
2018-12-26T10:25:48.412Z,25.77
2018-12-26T10:28:37.315Z,25.93
2018-12-26T10:31:26.229Z,20.57
2018-12-26T10:34:15.131Z,20.63
2018-12-26T10:37:04.052Z,21.80
2018-12-26T10:39:52.978Z,23.93
2018-12-26T10:42:41.879Z,17.00
2018-12-26T10:45:30.900Z,24.27
2018-12-26T10:48:19.802Z,22.40
2018-12-26T10:51:08.705Z,20.57
2018-12-26T10:53:57.597Z,22.10
2018-12-26T10:56:46.540Z,26.37
2018-12-26T10:59:35.474Z,19.03
2018-12-26T11:02:24.380Z,18.70
2018-12-26T11:05:13.299Z,21.85
2018-12-26T11:08:02.198Z,23.80
2018-12-26T11:10:51.094Z,18.30
2018-12-26T11:13:40.018Z,21.23
2018-12-26T11:16:28.919Z,25.07
2018-12-26T11:19:18.082Z,18.70
2018-12-26T11:22:07.005Z,25.70
2018-12-26T11:24:48.781Z,22.10
2018-12-26T11:27:37.694Z,17.67
2018-12-26T11:30:26.602Z,18.30
2018-12-26T11:33:15.540Z,16.63
2018-12-26T11:36:04.424Z,19.20
2018-12-26T11:38:53.347Z,21.63
2018-12-26T11:41:42.252Z,22.50
2018-12-26T11:44:31.162Z,27.00
2018-12-26T11:47:20.061Z,19.67
2018-12-26T11:50:09.061Z,17.70
2018-12-26T11:52:57.958Z,21.57
2018-12-26T11:55:46.906Z,18.60
2018-12-26T11:58:35.818Z,22.13
2018-12-26T12:01:24.827Z,22.60
2018-12-26T12:04:13.736Z,22.17
2018-12-26T12:07:02.652Z,24.60
2018-12-26T12:09:51.581Z,20.17
2018-12-26T12:12:40.489Z,20.47
2018-12-26T12:15:20.428Z,20.60
2018-12-26T12:18:09.417Z,22.50
2018-12-26T12:20:58.318Z,23.30
2018-12-26T12:23:47.238Z,18.77
2018-12-26T12:26:28.695Z,19.10
2018-12-26T12:29:17.609Z,21.60
2018-12-26T12:32:06.533Z,20.43
2018-12-26T12:34:55.448Z,16.50
2018-12-26T12:37:44.343Z,20.13
2018-12-26T12:40:52.349Z,18.20
2018-12-26T12:43:41.254Z,17.83
2018-12-26T12:46:49.253Z,18.70
2018-12-26T12:49:38.172Z,19.47
2018-12-26T12:52:27.088Z,18.90
2018-12-26T12:55:15.973Z,20.83
2018-12-26T12:58:04.967Z,21.93
2018-12-26T13:00:53.861Z,16.27
2018-12-26T13:06:37.392Z,18.13
2018-12-26T13:09:26.285Z,18.37
2018-12-26T13:12:15.198Z,19.33
2018-12-26T13:18:32.525Z,18.37
2018-12-26T13:21:21.417Z,21.30
2018-12-26T13:24:03.491Z,19.90
2018-12-26T13:30:00.218Z,23.73
2018-12-26T13:32:49.144Z,21.67
2018-12-26T13:35:38.062Z,20.50
2018-12-26T13:38:26.949Z,18.73
2018-12-26T13:44:15.240Z,19.53
2018-12-26T13:50:38.119Z,22.90
2018-12-26T13:53:26.911Z,22.23
2018-12-26T13:56:15.732Z,19.77
2018-12-26T13:59:04.527Z,25.00
2018-12-26T14:01:53.345Z,25.73
2018-12-26T14:04:42.151Z,22.33
2018-12-26T14:07:30.980Z,18.67
2018-12-26T14:10:19.780Z,23.90
2018-12-26T14:13:08.614Z,23.07
2018-12-26T14:15:57.472Z,26.00
2018-12-26T14:18:46.285Z,27.90
2018-12-26T14:21:35.090Z,23.30
2018-12-26T14:24:16.685Z,32.10
2018-12-26T14:27:05.472Z,22.53
2018-12-26T14:29:54.304Z,27.60
2018-12-26T14:32:43.118Z,24.43
2018-12-26T14:35:50.945Z,29.60
2018-12-26T14:38:39.740Z,26.07
2018-12-26T14:41:28.558Z,24.73
2018-12-26T14:44:17.345Z,24.20
2018-12-26T14:47:25.183Z,25.00
2018-12-26T14:50:14.253Z,21.93
2018-12-26T14:53:03.066Z,22.80
2018-12-26T14:55:51.871Z,25.13
2018-12-26T14:58:40.662Z,23.83
2018-12-26T15:01:29.483Z,18.80
2018-12-26T15:04:18.264Z,22.37
2018-12-26T15:06:47.731Z,20.50
2018-12-26T15:09:57.461Z,18.97
2018-12-26T15:12:46.287Z,20.80
2018-12-26T15:15:28.501Z,30.23
2018-12-26T15:18:17.452Z,25.30
2018-12-26T15:21:06.492Z,23.30
2018-12-26T15:23:48.354Z,23.70
2018-12-26T15:26:37.149Z,26.50
2018-12-26T15:29:25.960Z,24.77
2018-12-26T15:32:14.754Z,18.40
2018-12-26T15:35:03.940Z,22.00
2018-12-26T15:37:52.730Z,24.83
2018-12-26T15:40:41.537Z,23.10
2018-12-26T15:43:30.619Z,24.50
2018-12-26T15:46:19.430Z,23.67
2018-12-26T15:49:08.227Z,23.00
2018-12-26T15:51:57.061Z,26.37
2018-12-26T15:54:45.861Z,20.13
2018-12-26T15:57:35.013Z,22.57
2018-12-26T16:00:23.801Z,20.88
2018-12-26T16:03:12.628Z,22.30
2018-12-26T16:06:01.451Z,19.37
2018-12-26T16:08:50.343Z,24.67
2018-12-26T16:11:39.142Z,22.85
2018-12-26T16:14:27.917Z,33.90
2018-12-26T16:17:16.731Z,22.87
2018-12-26T16:20:26.440Z,21.10
2018-12-26T16:23:15.269Z,21.40
2018-12-26T16:25:56.938Z,21.87
2018-12-26T16:28:45.747Z,21.63
2018-12-26T16:31:34.632Z,20.40
2018-12-26T16:34:23.440Z,22.17
2018-12-26T16:37:12.228Z,21.33
2018-12-26T16:40:01.044Z,22.20
2018-12-26T16:42:49.837Z,19.70
2018-12-26T16:45:38.640Z,21.30
2018-12-26T16:48:27.439Z,17.27
2018-12-26T16:51:16.242Z,24.00
2018-12-26T16:54:05.023Z,24.70
2018-12-26T16:56:53.843Z,21.77
2018-12-26T16:59:42.632Z,19.30
2018-12-26T17:02:31.437Z,21.37
2018-12-26T17:05:20.285Z,22.70
2018-12-26T17:11:37.452Z,19.73
2018-12-26T17:14:26.264Z,27.60
2018-12-26T17:17:15.055Z,26.70
2018-12-26T17:23:33.634Z,28.93
2018-12-26T17:26:15.172Z,24.67
2018-12-26T17:29:03.995Z,23.90
2018-12-26T17:31:52.806Z,27.10
2018-12-26T17:34:41.606Z,23.23
2018-12-26T17:37:30.427Z,22.20
2018-12-26T17:40:19.283Z,23.07
2018-12-26T17:43:08.047Z,31.80
2018-12-26T17:45:56.852Z,26.97
2018-12-26T17:48:45.653Z,32.73
2018-12-26T17:51:34.474Z,29.63
2018-12-26T17:54:44.235Z,30.13
2018-12-26T17:57:33.047Z,33.87
2018-12-26T18:03:31.406Z,27.53
2018-12-26T18:06:20.233Z,31.73
2018-12-26T18:09:09.098Z,28.77
2018-12-26T18:12:11.177Z,27.80
2018-12-26T18:14:48.459Z,40.70
2018-12-26T18:17:37.261Z,35.67
2018-12-26T18:20:26.089Z,33.88
2018-12-26T18:23:14.896Z,36.20
2018-12-26T18:25:56.761Z,30.50
2018-12-26T18:28:45.564Z,37.37
2018-12-26T18:31:34.476Z,37.93
2018-12-26T18:34:24.994Z,37.77
2018-12-26T18:37:13.829Z,33.50
2018-12-26T18:40:02.619Z,31.00
2018-12-26T18:42:51.423Z,39.13
2018-12-26T18:45:40.237Z,34.13
2018-12-26T18:48:29.035Z,28.23
2018-12-26T18:51:17.879Z,37.37
2018-12-26T18:54:06.676Z,35.27
2018-12-26T18:56:55.491Z,50.25
2018-12-26T18:59:44.361Z,35.50
2018-12-26T19:02:33.145Z,34.50
2018-12-26T19:05:21.954Z,34.30
2018-12-26T19:08:10.750Z,34.57
2018-12-26T19:10:59.564Z,34.23
2018-12-26T19:13:48.376Z,33.90
2018-12-26T19:16:37.213Z,38.30
2018-12-26T19:19:26.035Z,30.40
2018-12-26T19:22:14.847Z,36.07
2018-12-26T19:25:03.818Z,39.50
2018-12-26T19:27:45.079Z,31.67
2018-12-26T19:30:33.894Z,37.73
2018-12-26T19:33:22.723Z,30.30
2018-12-26T19:36:11.519Z,34.18
2018-12-26T19:39:00.335Z,31.00
2018-12-26T19:41:49.161Z,39.83
2018-12-26T19:44:37.980Z,34.43
2018-12-26T19:47:26.778Z,39.10
2018-12-26T19:50:15.626Z,30.75
2018-12-26T19:53:04.518Z,39.47
2018-12-26T19:59:06.919Z,40.03
2018-12-26T20:01:56.073Z,40.92
2018-12-26T20:04:44.944Z,39.70
2018-12-26T20:07:34.189Z,39.60
2018-12-26T20:10:23.553Z,31.30
2018-12-26T20:16:39.620Z,38.30
2018-12-26T20:19:28.736Z,36.17
2018-12-26T20:22:18.110Z,36.43
2018-12-26T20:25:07.231Z,38.87
2018-12-26T20:27:47.132Z,34.37
2018-12-26T20:33:31.388Z,42.83
2018-12-26T20:36:20.793Z,39.17
2018-12-26T20:41:30.505Z,34.13
2018-12-26T20:51:03.894Z,42.07
2018-12-26T21:00:36.933Z,35.93
2018-12-26T21:03:45.029Z,38.67
2018-12-26T21:16:12.554Z,33.93
2018-12-26T21:19:21.295Z,38.53
2018-12-26T21:22:05.574Z,36.97
2018-12-26T21:24:54.910Z,40.47
2018-12-26T21:27:36.845Z,45.60
2018-12-26T21:30:25.940Z,41.80
2018-12-26T21:33:14.867Z,43.50
2018-12-26T21:36:03.754Z,31.67
2018-12-26T21:38:52.595Z,46.47
2018-12-26T21:41:41.413Z,40.70
2018-12-26T21:44:30.233Z,41.23
2018-12-26T21:47:19.043Z,41.53
2018-12-26T21:50:28.817Z,41.87
2018-12-26T21:53:17.643Z,47.27
2018-12-26T21:56:06.511Z,46.40
2018-12-26T21:58:55.352Z,46.87
2018-12-26T22:01:44.139Z,41.63
2018-12-26T22:04:32.952Z,49.13
2018-12-26T22:07:22.051Z,41.95
2018-12-26T22:10:10.948Z,49.43
2018-12-26T22:12:59.739Z,42.83
2018-12-26T22:15:48.554Z,39.40
2018-12-26T22:18:37.352Z,38.50
2018-12-26T22:21:26.170Z,43.13
2018-12-26T22:24:14.973Z,48.57
2018-12-26T22:26:56.382Z,61.90
2018-12-26T22:29:45.180Z,49.40
2018-12-26T22:32:33.992Z,57.27
2018-12-26T22:35:22.785Z,50.03
2018-12-26T22:38:11.631Z,41.40
2018-12-26T22:41:00.442Z,44.40
2018-12-26T22:43:49.279Z,36.90
2018-12-26T22:46:38.079Z,43.17
2018-12-26T22:49:26.915Z,44.37
2018-12-26T22:52:15.727Z,44.40
2018-12-26T22:58:19.955Z,43.23
2018-12-26T23:01:08.778Z,40.97
2018-12-26T23:03:57.600Z,45.03
2018-12-26T23:06:46.408Z,45.70
2018-12-26T23:09:35.217Z,43.07
2018-12-26T23:12:24.079Z,40.35
2018-12-26T23:18:07.875Z,47.03
2018-12-26T23:20:56.707Z,50.17
2018-12-26T23:23:38.058Z,46.50
2018-12-26T23:29:34.661Z,38.00
2018-12-26T23:32:23.497Z,33.77
2018-12-26T23:35:31.477Z,43.10
2018-12-26T23:47:36.678Z,47.47
2018-12-26T23:50:44.619Z,37.40
2018-12-26T23:53:33.498Z,47.47
2018-12-26T23:56:22.419Z,47.33
